Time;durP1;ratioP1;P1;durP2;ratioP2;P2;SDS_P1;SDS_P2;PMS_P1;PMS_P2;Temp;Humidity;BMP_temperature;BMP_pressure;BME280_temperature;BME280_humidity;BME280_pressure;Samples;Min_cycle;Max_cycle;Signal;HPM_P1;HPM_P2
2023/06/22 00:00:47;;;;;;;8.85;4.93;;;;;;;;;;5020993;28;20053;-66
2023/06/22 00:03:14;;;;;;;8.75;4.15;;;;;;;;;;5028448;28;20050;-66
2023/06/22 00:05:41;;;;;;;8.38;4.60;;;;;;;;;;5013539;28;20057;-65
2023/06/22 00:08:07;;;;;;;9.63;4.07;;;;;;;;;;5013799;28;20050;-67
2023/06/22 00:10:35;;;;;;;8.32;4.07;;;;;;;;;;5018099;28;20424;-66
2023/06/22 00:13:02;;;;;;;12.15;5.00;;;;;;;;;;5033402;28;20061;-66
2023/06/22 00:15:29;;;;;;;7.05;4.10;;;;;;;;;;5033427;28;20045;-66
2023/06/22 00:17:58;;;;;;;7.13;3.70;;;;;;;;;;5033335;28;20049;-66
2023/06/22 00:20:27;;;;;;;8.48;4.10;;;;;;;;;;5026086;28;20054;-66
2023/06/22 00:22:54;;;;;;;9.30;4.05;;;;;;;;;;5013651;28;20061;-66
2023/06/22 00:25:21;;;;;;;7.05;4.05;;;;;;;;;;5013394;28;20046;-66
2023/06/22 00:27:48;;;;;;;8.40;4.10;;;;;;;;;;5013417;28;20063;-62
2023/06/22 00:30:16;;;;;;;10.13;4.55;;;;;;;;;;5013262;28;20391;-62
2023/06/22 00:32:43;;;;;;;8.40;4.57;;;;;;;;;;5013097;28;20482;-62
2023/06/22 00:35:12;;;;;;;8.13;4.53;;;;;;;;;;5013274;28;20081;-62
2023/06/22 00:37:41;;;;;;;7.37;3.97;;;;;;;;;;5014708;28;20045;-62
2023/06/22 00:40:11;;;;;;;7.20;4.32;;;;;;;;;;5016737;28;20298;-61
2023/06/22 00:42:38;;;;;;;7.28;3.67;;;;;;;;;;5017147;28;20410;-61
2023/06/22 00:45:06;;;;;;;8.90;3.30;;;;;;;;;;5017657;28;20742;-62
2023/06/22 00:47:35;;;;;;;7.65;3.47;;;;;;;;;;5012113;28;20049;-62
2023/06/22 00:50:02;;;;;;;5.90;3.67;;;;;;;;;;5015135;28;20053;-62
2023/06/22 00:52:33;;;;;;;8.73;3.70;;;;;;;;;;5018897;28;20040;-62
2023/06/22 00:55:02;;;;;;;6.15;3.20;;;;;;;;;;5020097;28;20480;-62
2023/06/22 00:57:29;;;;;;;7.30;3.78;;;;;;;;;;5014467;28;20046;-62
2023/06/22 00:59:56;;;;;;;7.97;3.88;;;;;;;;;;5013822;28;20057;-62
2023/06/22 01:02:23;;;;;;;8.63;3.78;;;;;;;;;;5011449;28;20514;-62
2023/06/22 01:04:49;;;;;;;7.53;3.65;;;;;;;;;;5014170;28;20511;-62
2023/06/22 01:07:28;;;;;;;8.30;4.20;;;;;;;;;;5025365;28;20049;-62
2023/06/22 01:10:01;;;;;;;6.55;3.60;;;;;;;;;;5018121;28;20069;-62
2023/06/22 01:12:33;;;;;;;9.20;4.22;;;;;;;;;;5022360;28;20497;-62
2023/06/22 01:15:06;;;;;;;8.77;5.22;;;;;;;;;;5018715;28;20355;-62
2023/06/22 01:17:34;;;;;;;8.27;3.92;;;;;;;;;;5015161;28;20200;-62
2023/06/22 01:20:05;;;;;;;8.02;4.03;;;;;;;;;;5017988;28;20415;-62
2023/06/22 01:22:40;;;;;;;8.23;3.90;;;;;;;;;;5011701;28;20553;-62
2023/06/22 01:25:14;;;;;;;8.52;3.92;;;;;;;;;;5013720;28;20049;-62
2023/06/22 01:27:54;;;;;;;9.23;4.53;;;;;;;;;;5013256;28;20351;-62
2023/06/22 01:30:23;;;;;;;;;;;;;;;;;;5013387;28;20046;-61
2023/06/22 01:32:51;;;;;;;9.60;4.50;;;;;;;;;;5024713;28;20410;-62
2023/06/22 01:35:19;;;;;;;8.57;4.63;;;;;;;;;;5021940;28;20131;-62
2023/06/22 01:37:46;;;;;;;7.63;4.32;;;;;;;;;;5016885;28;20050;-62
2023/06/22 01:40:14;;;;;;;8.75;4.03;;;;;;;;;;5013681;28;20525;-62
2023/06/22 01:42:42;;;;;;;9.15;4.40;;;;;;;;;;5009502;28;20054;-62
2023/06/22 01:45:11;;;;;;;9.63;4.57;;;;;;;;;;5022827;28;20085;-62
2023/06/22 01:47:40;;;;;;;6.93;4.00;;;;;;;;;;5014965;28;20077;-62
2023/06/22 01:50:07;;;;;;;8.25;3.88;;;;;;;;;;5014703;28;20108;-62
2023/06/22 01:52:34;;;;;;;7.88;3.97;;;;;;;;;;5022182;28;20417;-62
2023/06/22 01:55:01;;;;;;;8.30;4.13;;;;;;;;;;5011878;28;20144;-60
2023/06/22 01:57:28;;;;;;;9.18;3.85;;;;;;;;;;5022767;28;20064;-62
2023/06/22 02:00:02;;;;;;;8.77;4.07;;;;;;;;;;5023889;28;20065;-61
2023/06/22 02:02:34;;;;;;;8.60;4.07;;;;;;;;;;5014041;28;20454;-62
2023/06/22 02:05:06;;;;;;;9.30;4.70;;;;;;;;;;5013216;28;20569;-62
2023/06/22 02:07:37;;;;;;;9.43;4.65;;;;;;;;;;5020771;28;20053;-62
2023/06/22 02:10:07;;;;;;;8.35;4.20;;;;;;;;;;5010125;28;20046;-62
2023/06/22 02:12:34;;;;;;;;;;;;;;;;;;5009437;28;20053;-62
2023/06/22 02:15:01;;;;;;;7.25;4.03;;;;;;;;;;5011452;28;19987;-62
2023/06/22 02:17:29;;;;;;;8.25;4.35;;;;;;;;;;5011567;28;20096;-62
2023/06/22 02:19:55;;;;;;;7.70;4.20;;;;;;;;;;5012455;28;20148;-62
2023/06/22 02:22:24;;;;;;;7.07;4.30;;;;;;;;;;5018691;28;20465;-62
2023/06/22 02:24:51;;;;;;;8.13;3.88;;;;;;;;;;5014999;28;20049;-61
2023/06/22 02:27:18;;;;;;;7.15;3.72;;;;;;;;;;5011633;28;20053;-62
2023/06/22 02:29:45;;;;;;;8.50;4.15;;;;;;;;;;5018052;28;20403;-62
2023/06/22 02:32:12;;;;;;;8.82;3.60;;;;;;;;;;5018234;28;20050;-61
2023/06/22 02:34:39;;;;;;;9.13;4.40;;;;;;;;;;5013363;28;20045;-62
2023/06/22 02:37:05;;;;;;;8.80;4.90;;;;;;;;;;5017941;28;20046;-62
2023/06/22 02:39:34;;;;;;;8.88;4.15;;;;;;;;;;5015427;28;20434;-62
2023/06/22 02:42:01;;;;;;;8.18;4.07;;;;;;;;;;5013690;28;20049;-62
2023/06/22 02:44:28;;;;;;;9.20;4.35;;;;;;;;;;5021277;28;21362;-62
2023/06/22 02:46:55;;;;;;;8.10;4.55;;;;;;;;;;5019497;28;20105;-62
2023/06/22 02:49:21;;;;;;;9.27;3.92;;;;;;;;;;5012255;28;20045;-62
2023/06/22 02:51:49;;;;;;;8.77;3.92;;;;;;;;;;5017613;28;20057;-62
2023/06/22 02:54:16;;;;;;;7.38;3.90;;;;;;;;;;5016644;28;20104;-62
2023/06/22 02:56:44;;;;;;;9.00;4.03;;;;;;;;;;5011127;28;20574;-61
2023/06/22 02:59:11;;;;;;;8.57;4.38;;;;;;;;;;5020066;28;20046;-62
2023/06/22 03:01:39;;;;;;;9.57;5.10;;;;;;;;;;5016813;28;20062;-61
2023/06/22 03:04:07;;;;;;;8.75;4.90;;;;;;;;;;5011331;28;20095;-62
2023/06/22 03:06:34;;;;;;;8.48;4.55;;;;;;;;;;5022323;28;20140;-62
2023/06/22 03:09:03;;;;;;;8.75;4.47;;;;;;;;;;5010556;28;20131;-62
2023/06/22 03:11:30;;;;;;;8.00;5.00;;;;;;;;;;5007762;28;20140;-62
2023/06/22 03:13:58;;;;;;;10.07;4.70;;;;;;;;;;5010167;28;20283;-62
2023/06/22 03:16:25;;;;;;;9.27;4.55;;;;;;;;;;5009486;28;20111;-62
2023/06/22 03:18:53;;;;;;;10.90;5.57;;;;;;;;;;5010314;28;20469;-61
2023/06/22 03:21:20;;;;;;;12.20;5.00;;;;;;;;;;5009271;28;20046;-61
2023/06/22 03:23:47;;;;;;;9.45;4.88;;;;;;;;;;5012645;28;20053;-62
2023/06/22 03:26:14;;;;;;;9.43;4.65;;;;;;;;;;5019502;28;20076;-62
2023/06/22 03:28:40;;;;;;;9.65;5.03;;;;;;;;;;5018192;28;20049;-62
2023/06/22 03:31:09;;;;;;;10.23;5.70;;;;;;;;;;5013887;28;20502;-62
2023/06/22 03:33:36;;;;;;;9.25;4.82;;;;;;;;;;5013935;28;20096;-62
2023/06/22 03:36:03;;;;;;;8.95;4.97;;;;;;;;;;5012918;28;20057;-62
2023/06/22 03:38:30;;;;;;;9.15;4.97;;;;;;;;;;5015275;28;20052;-62
2023/06/22 03:40:57;;;;;;;9.43;4.45;;;;;;;;;;5009356;28;20057;-61
2023/06/22 03:43:24;;;;;;;9.15;4.85;;;;;;;;;;5009680;28;20474;-62
2023/06/22 03:45:51;;;;;;;10.88;4.90;;;;;;;;;;5014212;28;20061;-62
2023/06/22 03:48:19;;;;;;;8.32;5.07;;;;;;;;;;5021769;28;20377;-62
2023/06/22 03:50:45;;;;;;;8.63;5.10;;;;;;;;;;5015900;28;20100;-62
2023/06/22 03:53:13;;;;;;;11.80;5.70;;;;;;;;;;5016340;28;20049;-62
2023/06/22 03:55:50;;;;;;;11.27;5.60;;;;;;;;;;5014925;28;20061;-62
2023/06/22 03:58:18;;;;;;;10.80;5.35;;;;;;;;;;5011325;28;20045;-62
2023/06/22 04:00:45;;;;;;;9.55;4.82;;;;;;;;;;5020485;28;20051;-62
2023/06/22 04:03:12;;;;;;;8.70;4.82;;;;;;;;;;5018860;28;20100;-62
2023/06/22 04:05:41;;;;;;;9.57;4.93;;;;;;;;;;5014624;28;20054;-62
2023/06/22 04:08:07;;;;;;;11.18;5.10;;;;;;;;;;5007895;28;20042;-61
2023/06/22 04:10:35;;;;;;;15.45;6.30;;;;;;;;;;5008479;28;20050;-62
2023/06/22 04:13:01;;;;;;;9.30;4.95;;;;;;;;;;5016309;28;20046;-62
2023/06/22 04:15:28;;;;;;;8.73;4.88;;;;;;;;;;5013059;28;20057;-62
2023/06/22 04:17:55;;;;;;;10.27;5.10;;;;;;;;;;5013416;28;20077;-61
2023/06/22 04:20:22;;;;;;;9.68;5.50;;;;;;;;;;5018870;28;20053;-62
2023/06/22 04:22:50;;;;;;;9.98;4.90;;;;;;;;;;5014008;28;20054;-61
2023/06/22 04:25:18;;;;;;;10.57;4.78;;;;;;;;;;5015391;28;20108;-62
2023/06/22 04:27:45;;;;;;;9.18;4.47;;;;;;;;;;5014031;28;20457;-62
2023/06/22 04:30:15;;;;;;;12.23;5.43;;;;;;;;;;5011113;28;20038;-62
2023/06/22 04:32:42;;;;;;;10.68;4.80;;;;;;;;;;5020057;28;20468;-62
2023/06/22 04:35:10;;;;;;;9.50;5.50;;;;;;;;;;5015786;28;20053;-62
2023/06/22 04:37:36;;;;;;;10.68;6.10;;;;;;;;;;5016437;28;20072;-62
2023/06/22 04:40:06;;;;;;;10.32;5.32;;;;;;;;;;5020553;28;20100;-62
2023/06/22 04:42:35;;;;;;;8.27;5.07;;;;;;;;;;5014054;28;20080;-62
2023/06/22 04:45:02;;;;;;;12.57;5.22;;;;;;;;;;5023048;28;20041;-62
2023/06/22 04:47:29;;;;;;;11.63;5.75;;;;;;;;;;5021181;28;20053;-62
2023/06/22 04:49:55;;;;;;;9.93;5.40;;;;;;;;;;5016360;28;20054;-62
2023/06/22 04:52:22;;;;;;;11.32;5.50;;;;;;;;;;5016818;28;20088;-62
2023/06/22 04:54:50;;;;;;;12.85;5.72;;;;;;;;;;5022101;28;20054;-62
2023/06/22 04:57:18;;;;;;;10.00;5.25;;;;;;;;;;5018251;28;20089;-62
2023/06/22 04:59:45;;;;;;;11.13;5.70;;;;;;;;;;5023010;28;20458;-62
2023/06/22 05:02:12;;;;;;;10.38;5.15;;;;;;;;;;5013997;28;20870;-62
2023/06/22 05:04:39;;;;;;;12.38;5.55;;;;;;;;;;5017649;28;20517;-62
2023/06/22 05:07:06;;;;;;;10.02;4.97;;;;;;;;;;5024625;28;20056;-62
2023/06/22 05:09:34;;;;;;;10.73;5.30;;;;;;;;;;5025080;28;20050;-62
2023/06/22 05:12:02;;;;;;;10.30;5.47;;;;;;;;;;5014976;28;20092;-62
2023/06/22 05:14:30;;;;;;;14.52;6.57;;;;;;;;;;5013262;28;20145;-62
2023/06/22 05:16:58;;;;;;;10.13;5.10;;;;;;;;;;5015119;28;20103;-62
2023/06/22 05:19:31;;;;;;;11.73;5.50;;;;;;;;;;5016317;28;20128;-62
2023/06/22 05:21:58;;;;;;;9.00;5.30;;;;;;;;;;5018250;28;20760;-62
2023/06/22 05:24:24;;;;;;;11.63;6.00;;;;;;;;;;5022347;28;20050;-61
2023/06/22 05:26:51;;;;;;;9.82;5.07;;;;;;;;;;5014875;28;20058;-60
2023/06/22 05:29:18;;;;;;;12.40;5.72;;;;;;;;;;5022295;28;20058;-60
2023/06/22 05:31:46;;;;;;;13.85;5.63;;;;;;;;;;5015979;28;20451;-60
2023/06/22 05:34:13;;;;;;;12.07;5.72;;;;;;;;;;5012516;28;20049;-59
2023/06/22 05:36:40;;;;;;;11.43;5.88;;;;;;;;;;5011549;28;20057;-60
2023/06/22 05:39:13;;;;;;;9.35;5.35;;;;;;;;;;5015819;28;20045;-60
2023/06/22 05:41:40;;;;;;;11.70;6.18;;;;;;;;;;5012987;28;20153;-60
2023/06/22 05:44:06;;;;;;;10.35;5.13;;;;;;;;;;5020073;28;20499;-60
2023/06/22 05:46:33;;;;;;;9.98;6.10;;;;;;;;;;5021839;28;20092;-60
2023/06/22 05:49:01;;;;;;;12.40;5.97;;;;;;;;;;5011224;28;20104;-60
2023/06/22 05:51:28;;;;;;;10.68;5.63;;;;;;;;;;5022628;28;20057;-60
2023/06/22 05:53:55;;;;;;;12.40;5.90;;;;;;;;;;5024408;28;20083;-59
2023/06/22 05:56:22;;;;;;;11.43;5.95;;;;;;;;;;5010752;28;20061;-60
2023/06/22 05:58:49;;;;;;;14.20;6.07;;;;;;;;;;5013162;28;20045;-61
2023/06/22 06:01:16;;;;;;;11.88;5.40;;;;;;;;;;5012839;28;20107;-61
2023/06/22 06:03:44;;;;;;;15.55;5.72;;;;;;;;;;5016676;28;20409;-61
2023/06/22 06:06:12;;;;;;;10.45;4.78;;;;;;;;;;5022201;28;20050;-61
2023/06/22 06:08:39;;;;;;;11.40;5.68;;;;;;;;;;5017750;28;20058;-61
2023/06/22 06:11:06;;;;;;;10.35;5.90;;;;;;;;;;5024468;28;20390;-61
2023/06/22 06:13:33;;;;;;;10.38;5.85;;;;;;;;;;5018712;28;20106;-61
2023/06/22 06:16:00;;;;;;;11.55;5.60;;;;;;;;;;5018196;28;20052;-61
2023/06/22 06:18:27;;;;;;;12.15;6.05;;;;;;;;;;5015851;28;20076;-61
2023/06/22 06:20:53;;;;;;;12.13;6.30;;;;;;;;;;5017860;28;20046;-61
2023/06/22 06:23:22;;;;;;;11.25;6.43;;;;;;;;;;5019897;28;20049;-61
2023/06/22 06:25:48;;;;;;;9.77;6.22;;;;;;;;;;5010807;28;20064;-61
2023/06/22 06:28:15;;;;;;;13.15;6.65;;;;;;;;;;5013839;28;20666;-61
2023/06/22 06:30:42;;;;;;;12.10;5.95;;;;;;;;;;5018695;28;20514;-61
2023/06/22 06:33:09;;;;;;;13.20;5.95;;;;;;;;;;5013319;28;20049;-61
2023/06/22 06:35:37;;;;;;;12.60;7.15;;;;;;;;;;5016840;28;20064;-61
2023/06/22 06:38:04;;;;;;;13.13;6.43;;;;;;;;;;5011780;28;20065;-61
2023/06/22 06:40:32;;;;;;;14.23;6.50;;;;;;;;;;5014193;28;20046;-61
2023/06/22 06:42:59;;;;;;;12.32;6.18;;;;;;;;;;5015217;28;20057;-61
2023/06/22 06:45:28;;;;;;;12.27;6.55;;;;;;;;;;5019008;28;20478;-61
2023/06/22 06:47:55;;;;;;;12.00;6.18;;;;;;;;;;5020344;28;20588;-61
2023/06/22 06:50:22;;;;;;;12.07;6.80;;;;;;;;;;5017048;28;20049;-61
2023/06/22 06:52:49;;;;;;;11.60;6.38;;;;;;;;;;5012175;28;20752;-61
2023/06/22 06:55:17;;;;;;;12.15;6.45;;;;;;;;;;5014361;28;20041;-61
2023/06/22 06:57:48;;;;;;;10.90;6.13;;;;;;;;;;5020957;28;20140;-60
2023/06/22 07:00:16;;;;;;;10.68;5.80;;;;;;;;;;5029804;28;20061;-60
2023/06/22 07:02:44;;;;;;;14.93;7.10;;;;;;;;;;5028981;28;20057;-60
2023/06/22 07:05:11;;;;;;;11.40;6.15;;;;;;;;;;5017938;28;20557;-64
2023/06/22 07:07:39;;;;;;;13.18;6.03;;;;;;;;;;5014374;28;20054;-66
2023/06/22 07:10:06;;;;;;;12.77;6.40;;;;;;;;;;5016392;28;20096;-65
2023/06/22 07:12:33;;;;;;;12.48;6.65;;;;;;;;;;5022809;28;20041;-65
2023/06/22 07:15:04;;;;;;;15.95;8.27;;;;;;;;;;5019500;28;20074;-66
2023/06/22 07:17:31;;;;;;;11.35;6.88;;;;;;;;;;5024375;28;20519;-64
2023/06/22 07:19:58;;;;;;;15.05;8.48;;;;;;;;;;5022465;28;20071;-63
2023/06/22 07:22:26;;;;;;;13.10;7.13;;;;;;;;;;5023944;28;20041;-64
2023/06/22 07:24:53;;;;;;;12.93;7.03;;;;;;;;;;5022125;28;20058;-64
2023/06/22 07:27:21;;;;;;;16.10;7.80;;;;;;;;;;5026547;28;20057;-67
2023/06/22 07:29:47;;;;;;;13.57;7.38;;;;;;;;;;5029716;28;20064;-64
2023/06/22 07:32:16;;;;;;;14.30;7.03;;;;;;;;;;5029518;28;20045;-64
2023/06/22 07:34:43;;;;;;;11.52;7.18;;;;;;;;;;5023059;28;20069;-64
2023/06/22 07:37:10;;;;;;;10.18;5.53;;;;;;;;;;5023861;28;20096;-65
2023/06/22 07:39:37;;;;;;;13.75;7.15;;;;;;;;;;5021555;28;20100;-63
2023/06/22 07:42:05;;;;;;;13.98;6.60;;;;;;;;;;5027763;28;20089;-63
2023/06/22 07:44:31;;;;;;;12.50;7.20;;;;;;;;;;5016349;28;20038;-66
2023/06/22 07:46:59;;;;;;;12.98;6.15;;;;;;;;;;5033183;28;20444;-65
2023/06/22 07:49:28;;;;;;;13.38;6.53;;;;;;;;;;5029655;28;20733;-65
2023/06/22 07:51:56;;;;;;;14.15;7.07;;;;;;;;;;5010232;28;20054;-65
2023/06/22 07:54:23;;;;;;;12.70;6.85;;;;;;;;;;5017658;28;20048;-65
2023/06/22 07:56:50;;;;;;;13.95;6.90;;;;;;;;;;5029560;28;20782;-65
2023/06/22 07:59:16;;;;;;;13.98;7.60;;;;;;;;;;5028694;28;20057;-68
2023/06/22 08:01:43;;;;;;;15.10;6.95;;;;;;;;;;5029252;28;20100;-65
2023/06/22 08:04:10;;;;;;;12.93;7.03;;;;;;;;;;5016691;28;20149;-65
2023/06/22 08:06:38;;;;;;;12.13;6.00;;;;;;;;;;5017373;28;20054;-68
2023/06/22 08:09:05;;;;;;;12.00;7.90;;;;;;;;;;5022568;28;20053;-66
2023/06/22 08:11:32;;;;;;;10.52;6.43;;;;;;;;;;5024834;28;20108;-66
2023/06/22 08:13:59;;;;;;;12.30;6.75;;;;;;;;;;5026837;28;20095;-68
2023/06/22 08:16:26;;;;;;;10.98;6.30;;;;;;;;;;5020761;28;20058;-66
2023/06/22 08:18:52;;;;;;;10.45;7.20;;;;;;;;;;5028438;28;20087;-62
2023/06/22 08:21:19;;;;;;;12.48;6.93;;;;;;;;;;5029080;28;20065;-63
2023/06/22 08:23:47;;;;;;;14.02;7.22;;;;;;;;;;5032816;28;20053;-63
2023/06/22 08:26:15;;;;;;;11.88;7.25;;;;;;;;;;5032358;28;20046;-64
2023/06/22 08:28:42;;;;;;;12.68;6.70;;;;;;;;;;5032186;28;20080;-65
2023/06/22 08:31:09;;;;;;;10.93;6.85;;;;;;;;;;5032516;28;20399;-64
2023/06/22 08:33:36;;;;;;;12.32;7.18;;;;;;;;;;5026140;28;20045;-65
2023/06/22 08:36:05;;;;;;;11.23;7.35;;;;;;;;;;5032627;28;20272;-64
2023/06/22 08:38:32;;;;;;;12.48;6.82;;;;;;;;;;5032090;28;20100;-62
2023/06/22 08:41:01;;;;;;;12.30;7.50;;;;;;;;;;5032535;28;20515;-62
2023/06/22 08:43:27;;;;;;;13.77;7.47;;;;;;;;;;5032801;28;20477;-64
2023/06/22 08:45:54;;;;;;;14.77;6.85;;;;;;;;;;5032754;28;20071;-62
2023/06/22 08:48:21;;;;;;;14.00;7.00;;;;;;;;;;5033084;28;20441;-62
2023/06/22 08:50:48;;;;;;;12.05;6.82;;;;;;;;;;5032323;28;20053;-62
2023/06/22 08:53:15;;;;;;;13.70;7.78;;;;;;;;;;5029337;28;20049;-62
2023/06/22 08:55:42;;;;;;;12.40;6.90;;;;;;;;;;5043854;28;20060;-62
2023/06/22 08:58:10;;;;;;;14.77;7.57;;;;;;;;;;5052256;28;20111;-62
2023/06/22 09:00:37;;;;;;;11.50;7.00;;;;;;;;;;5049842;28;20464;-61
2023/06/22 09:03:04;;;;;;;12.50;6.90;;;;;;;;;;5031513;28;20124;-61
2023/06/22 09:05:31;;;;;;;12.55;7.63;;;;;;;;;;5038916;28;20396;-61
2023/06/22 09:07:58;;;;;;;11.98;6.80;;;;;;;;;;5032288;28;20046;-60
2023/06/22 09:10:25;;;;;;;13.85;7.15;;;;;;;;;;5031828;28;20161;-62
2023/06/22 09:12:52;;;;;;;12.38;7.35;;;;;;;;;;5029168;28;20052;-62
2023/06/22 09:15:20;;;;;;;13.80;7.07;;;;;;;;;;5032147;28;20133;-63
2023/06/22 09:17:47;;;;;;;16.10;7.47;;;;;;;;;;5032045;28;20060;-63
2023/06/22 09:20:14;;;;;;;13.27;7.40;;;;;;;;;;5031221;28;20060;-63
2023/06/22 09:22:41;;;;;;;13.88;7.55;;;;;;;;;;5029093;28;20461;-63
2023/06/22 09:25:09;;;;;;;12.52;7.28;;;;;;;;;;5042643;28;20049;-63
2023/06/22 09:27:36;;;;;;;12.85;7.47;;;;;;;;;;5026942;28;20060;-63
2023/06/22 09:30:03;;;;;;;10.68;6.60;;;;;;;;;;5020862;28;20093;-63
2023/06/22 09:32:31;;;;;;;13.35;7.43;;;;;;;;;;5029979;28;20054;-63
2023/06/22 09:34:58;;;;;;;14.35;7.28;;;;;;;;;;5031782;28;20053;-63
2023/06/22 09:37:25;;;;;;;16.10;7.65;;;;;;;;;;5027041;28;20056;-63
2023/06/22 09:39:52;;;;;;;15.50;7.55;;;;;;;;;;5029344;28;20052;-64
2023/06/22 09:42:20;;;;;;;15.55;7.57;;;;;;;;;;5031148;28;20532;-63
2023/06/22 09:44:47;;;;;;;12.65;7.05;;;;;;;;;;5019531;28;20054;-62
2023/06/22 09:47:14;;;;;;;15.40;7.40;;;;;;;;;;5031490;28;20049;-63
2023/06/22 09:49:42;;;;;;;13.57;7.28;;;;;;;;;;5031315;28;20410;-62
2023/06/22 09:52:11;;;;;;;16.58;7.03;;;;;;;;;;5032495;28;20103;-63
2023/06/22 09:54:37;;;;;;;14.38;7.60;;;;;;;;;;5031228;28;20091;-66
2023/06/22 09:57:05;;;;;;;16.63;7.30;;;;;;;;;;5022781;28;20045;-63
2023/06/22 09:59:32;;;;;;;12.63;7.05;;;;;;;;;;5023365;28;20049;-63
2023/06/22 10:01:58;;;;;;;13.55;7.15;;;;;;;;;;5017379;28;20045;-63
2023/06/22 10:04:25;;;;;;;10.73;7.13;;;;;;;;;;5031165;28;20096;-63
2023/06/22 10:06:53;;;;;;;11.75;6.47;;;;;;;;;;5027045;28;20046;-65
2023/06/22 10:09:21;;;;;;;16.90;7.35;;;;;;;;;;5014012;28;20558;-67
2023/06/22 10:11:48;;;;;;;15.80;7.65;;;;;;;;;;5029014;28;20049;-63
2023/06/22 10:14:14;;;;;;;17.55;7.45;;;;;;;;;;5025181;28;20038;-64
2023/06/22 10:16:42;;;;;;;16.95;8.00;;;;;;;;;;5013602;28;20077;-65
2023/06/22 10:19:08;;;;;;;12.68;7.25;;;;;;;;;;5022959;28;20107;-63
2023/06/22 10:21:35;;;;;;;12.82;7.00;;;;;;;;;;5012764;28;20065;-63
2023/06/22 10:24:05;;;;;;;13.93;7.55;;;;;;;;;;5020552;28;20053;-64
2023/06/22 10:26:33;;;;;;;20.75;10.60;;;;;;;;;;5026403;28;20050;-63
2023/06/22 10:28:59;;;;;;;17.13;8.95;;;;;;;;;;5015070;28;20494;-64
2023/06/22 10:31:27;;;;;;;13.77;7.80;;;;;;;;;;5027505;28;20049;-63
2023/06/22 10:33:54;;;;;;;18.60;11.25;;;;;;;;;;5030888;28;20053;-64
2023/06/22 10:36:21;;;;;;;17.35;10.30;;;;;;;;;;5029744;28;20048;-63
2023/06/22 10:38:48;;;;;;;16.20;9.73;;;;;;;;;;5027711;28;20576;-63
2023/06/22 10:41:17;;;;;;;16.20;8.55;;;;;;;;;;5029199;28;20083;-65
2023/06/22 10:43:44;;;;;;;14.88;8.07;;;;;;;;;;5030095;28;20071;-64
2023/06/22 10:46:10;;;;;;;12.93;7.93;;;;;;;;;;5030400;28;20539;-64
2023/06/22 10:48:37;;;;;;;16.33;8.20;;;;;;;;;;5030324;28;20049;-65
2023/06/22 10:51:04;;;;;;;11.85;7.63;;;;;;;;;;5021173;28;20571;-65
2023/06/22 10:53:31;;;;;;;13.20;7.15;;;;;;;;;;5029450;28;20045;-65
2023/06/22 10:55:58;;;;;;;12.82;7.50;;;;;;;;;;5030534;28;20049;-64
2023/06/22 10:58:26;;;;;;;13.52;7.82;;;;;;;;;;5021256;28;20100;-64
2023/06/22 11:00:53;;;;;;;13.68;6.93;;;;;;;;;;5021098;28;20059;-65
2023/06/22 11:03:20;;;;;;;12.73;7.50;;;;;;;;;;5021911;28;20045;-65
2023/06/22 11:05:47;;;;;;;10.88;7.05;;;;;;;;;;5026170;28;20050;-64
2023/06/22 11:08:14;;;;;;;13.45;7.75;;;;;;;;;;5030076;28;20494;-65
2023/06/22 11:10:41;;;;;;;16.48;7.78;;;;;;;;;;5030123;28;20057;-62
2023/06/22 11:13:09;;;;;;;14.55;7.80;;;;;;;;;;5029818;28;20463;-65
2023/06/22 11:15:39;;;;;;;11.25;6.80;;;;;;;;;;5027960;28;20057;-64
2023/06/22 11:18:06;;;;;;;;;;;;;;;;;;5030252;28;20281;-64
2023/06/22 11:20:38;;;;;;;14.30;7.80;;;;;;;;;;5029700;28;20290;-65
2023/06/22 11:23:06;;;;;;;13.63;7.75;;;;;;;;;;5030153;28;20049;-64
2023/06/22 11:25:34;;;;;;;13.15;7.18;;;;;;;;;;5030199;28;20053;-64
2023/06/22 11:28:02;;;;;;;15.18;8.02;;;;;;;;;;5029739;28;20061;-65
2023/06/22 11:30:29;;;;;;;14.55;8.18;;;;;;;;;;5028581;28;20060;-64
2023/06/22 11:32:57;;;;;;;16.17;8.05;;;;;;;;;;5024607;28;20055;-65
2023/06/22 11:35:24;;;;;;;13.55;7.53;;;;;;;;;;5029424;28;20054;-65
2023/06/22 11:37:51;;;;;;;12.30;7.85;;;;;;;;;;5027528;28;20111;-65
2023/06/22 11:40:17;;;;;;;15.10;7.70;;;;;;;;;;5029444;28;20052;-65
2023/06/22 11:42:44;;;;;;;14.40;8.30;;;;;;;;;;5021701;28;20156;-65
2023/06/22 11:45:12;;;;;;;16.15;7.28;;;;;;;;;;5026844;28;20176;-63
2023/06/22 11:47:39;;;;;;;18.98;7.85;;;;;;;;;;5031173;28;20153;-64
2023/06/22 11:50:08;;;;;;;12.98;7.70;;;;;;;;;;5033468;28;20053;-63
2023/06/22 11:52:36;;;;;;;;;;;;;;;;;;5034096;28;20057;-64
2023/06/22 11:55:05;;;;;;;14.93;8.05;;;;;;;;;;5033512;28;20290;-64
2023/06/22 11:57:33;;;;;;;15.10;8.23;;;;;;;;;;5033428;28;20056;-64
2023/06/22 12:00:00;;;;;;;14.23;8.00;;;;;;;;;;5033935;28;20053;-64
2023/06/22 12:02:27;;;;;;;15.00;8.40;;;;;;;;;;5033900;28;20490;-65
2023/06/22 12:04:56;;;;;;;14.75;7.60;;;;;;;;;;5033344;28;20112;-65
2023/06/22 12:07:24;;;;;;;13.93;8.18;;;;;;;;;;5033582;28;20477;-64
2023/06/22 12:09:51;;;;;;;16.92;8.18;;;;;;;;;;5033122;28;20392;-64
2023/06/22 12:12:17;;;;;;;17.25;9.02;;;;;;;;;;5033076;28;20049;-65
2023/06/22 12:14:44;;;;;;;12.07;8.05;;;;;;;;;;5033167;28;20053;-64
2023/06/22 12:17:11;;;;;;;16.02;7.97;;;;;;;;;;5032608;28;20053;-64
2023/06/22 12:19:38;;;;;;;12.52;7.78;;;;;;;;;;5027797;28;20096;-64
2023/06/22 12:22:05;;;;;;;11.23;7.53;;;;;;;;;;5033093;28;20042;-64
2023/06/22 12:24:33;;;;;;;11.70;7.25;;;;;;;;;;5033058;28;20100;-65
2023/06/22 12:27:02;;;;;;;16.95;7.80;;;;;;;;;;5025791;28;20167;-65
2023/06/22 12:29:28;;;;;;;17.30;7.60;;;;;;;;;;5024191;28;20045;-64
2023/06/22 12:31:56;;;;;;;13.00;7.53;;;;;;;;;;5031748;28;20042;-65
2023/06/22 12:34:23;;;;;;;14.35;8.10;;;;;;;;;;5032655;28;20103;-65
2023/06/22 12:36:50;;;;;;;12.93;6.97;;;;;;;;;;5032668;28;20145;-65
2023/06/22 12:39:17;;;;;;;15.60;9.40;;;;;;;;;;5032361;28;20452;-64
2023/06/22 12:41:45;;;;;;;14.63;8.00;;;;;;;;;;5012993;28;20499;-64
2023/06/22 12:44:12;;;;;;;11.90;6.90;;;;;;;;;;5023628;28;20163;-64
2023/06/22 12:46:39;;;;;;;12.77;7.07;;;;;;;;;;5033157;28;20454;-63
2023/06/22 12:49:06;;;;;;;12.38;7.85;;;;;;;;;;5032703;28;20045;-64
2023/06/22 12:51:33;;;;;;;13.68;7.72;;;;;;;;;;5031962;28;20287;-64
2023/06/22 12:54:00;;;;;;;15.73;8.20;;;;;;;;;;5032660;28;20045;-64
2023/06/22 12:56:27;;;;;;;11.98;7.43;;;;;;;;;;5031168;28;20081;-64
2023/06/22 12:58:55;;;;;;;14.63;7.43;;;;;;;;;;5022411;28;20049;-63
2023/06/22 13:01:22;;;;;;;14.45;7.90;;;;;;;;;;5029216;28;20042;-64
2023/06/22 13:03:49;;;;;;;12.65;7.55;;;;;;;;;;5031630;28;20492;-64
2023/06/22 13:06:16;;;;;;;14.60;7.78;;;;;;;;;;5026983;28;20046;-64
2023/06/22 13:08:43;;;;;;;14.02;7.78;;;;;;;;;;5032650;28;20050;-65
2023/06/22 13:11:10;;;;;;;15.63;7.50;;;;;;;;;;5031978;28;20096;-64
2023/06/22 13:13:36;;;;;;;14.32;7.80;;;;;;;;;;5032498;28;20054;-64
2023/06/22 13:16:05;;;;;;;11.52;7.30;;;;;;;;;;5025478;28;20142;-65
2023/06/22 13:18:33;;;;;;;12.93;7.70;;;;;;;;;;5031643;28;20095;-64
2023/06/22 13:21:00;;;;;;;12.35;6.85;;;;;;;;;;5032178;28;20050;-64
2023/06/22 13:23:27;;;;;;;11.73;6.97;;;;;;;;;;5032618;28;20056;-64
2023/06/22 13:25:54;;;;;;;14.05;7.32;;;;;;;;;;5030129;28;20119;-63
2023/06/22 13:28:21;;;;;;;13.85;7.05;;;;;;;;;;5031852;28;20045;-64
2023/06/22 13:30:48;;;;;;;12.20;6.45;;;;;;;;;;5026455;28;20064;-64
2023/06/22 13:33:16;;;;;;;11.48;6.95;;;;;;;;;;5031853;28;20049;-64
2023/06/22 13:35:43;;;;;;;13.82;7.18;;;;;;;;;;5012282;28;20108;-62
2023/06/22 13:38:10;;;;;;;12.63;6.93;;;;;;;;;;5012835;28;20052;-62
2023/06/22 13:40:38;;;;;;;11.98;7.05;;;;;;;;;;5012535;28;20045;-63
2023/06/22 13:43:06;;;;;;;11.45;7.15;;;;;;;;;;5012403;28;20053;-63
2023/06/22 13:45:33;;;;;;;13.02;7.20;;;;;;;;;;5024330;28;20056;-63
2023/06/22 13:47:59;;;;;;;10.75;6.55;;;;;;;;;;5027921;28;20075;-63
2023/06/22 13:50:29;;;;;;;12.50;6.60;;;;;;;;;;5025483;28;20487;-62
2023/06/22 13:52:55;;;;;;;;;;;;;;;;;;5018215;28;20057;-63
2023/06/22 13:55:23;;;;;;;17.55;7.15;;;;;;;;;;5012123;28;20282;-63
2023/06/22 13:57:51;;;;;;;13.50;6.70;;;;;;;;;;5012217;28;20046;-63
2023/06/22 14:00:18;;;;;;;12.38;6.93;;;;;;;;;;5028751;28;20045;-63
2023/06/22 14:02:45;;;;;;;12.38;6.60;;;;;;;;;;5023323;28;20049;-63
2023/06/22 14:05:12;;;;;;;14.05;7.10;;;;;;;;;;5031051;28;20073;-63
2023/06/22 14:07:40;;;;;;;13.70;6.72;;;;;;;;;;5028196;28;20569;-63
2023/06/22 14:10:08;;;;;;;11.73;6.30;;;;;;;;;;5027698;28;20046;-63
2023/06/22 14:12:34;;;;;;;13.70;6.50;;;;;;;;;;5031155;28;20049;-63
2023/06/22 14:15:01;;;;;;;12.52;7.07;;;;;;;;;;5017394;28;20085;-63
2023/06/22 14:17:28;;;;;;;13.82;6.75;;;;;;;;;;5022578;28;20041;-62
2023/06/22 14:19:55;;;;;;;12.35;6.57;;;;;;;;;;5030306;28;20486;-63
2023/06/22 14:22:23;;;;;;;13.80;6.35;;;;;;;;;;5030877;28;20061;-63
2023/06/22 14:24:51;;;;;;;12.10;6.20;;;;;;;;;;5030865;28;20474;-63
2023/06/22 14:27:18;;;;;;;12.07;6.23;;;;;;;;;;5031204;28;20061;-63
2023/06/22 14:29:45;;;;;;;11.10;6.60;;;;;;;;;;5031095;28;20470;-63
2023/06/22 14:32:11;;;;;;;12.95;7.03;;;;;;;;;;5027816;28;20049;-63
2023/06/22 14:34:39;;;;;;;13.40;7.10;;;;;;;;;;5030504;28;20049;-63
2023/06/22 14:37:07;;;;;;;12.48;6.13;;;;;;;;;;5030535;28;20053;-63